sensor_id;sensor_type;location;lat;lon;timestamp;pressure;altitude;pressure_sealevel;temperature;humidity
72285;BME280;60220;53.552;10.092;2023-12-20T00:02:15;100735.03;;;6.85;100.00
72285;BME280;60220;53.552;10.092;2023-12-20T00:04:44;100735.84;;;6.65;100.00
72285;BME280;60220;53.552;10.092;2023-12-20T00:07:11;100735.03;;;6.99;100.00
72285;BME280;60220;53.552;10.092;2023-12-20T00:09:38;100734.13;;;6.67;100.00
72285;BME280;60220;53.552;10.092;2023-12-20T00:12:05;100725.31;;;6.31;100.00
72285;BME280;60220;53.552;10.092;2023-12-20T00:14:34;100732.31;;;6.41;100.00
72285;BME280;60220;53.552;10.092;2023-12-20T00:17:00;100731.50;;;6.62;100.00
72285;BME280;60220;53.552;10.092;2023-12-20T00:19:28;100726.28;;;6.74;100.00
72285;BME280;60220;53.552;10.092;2023-12-20T00:21:55;100725.47;;;6.98;100.00
72285;BME280;60220;53.552;10.092;2023-12-20T00:24:22;100721.97;;;6.84;100.00
72285;BME280;60220;53.552;10.092;2023-12-20T00:26:48;100719.38;;;6.96;100.00
72285;BME280;60220;53.552;10.092;2023-12-20T00:29:15;100718.47;;;6.70;100.00
72285;BME280;60220;53.552;10.092;2023-12-20T00:31:44;100719.38;;;6.90;100.00
72285;BME280;60220;53.552;10.092;2023-12-20T00:34:11;100721.94;;;6.78;100.00
72285;BME280;60220;53.552;10.092;2023-12-20T00:36:41;100711.53;;;6.75;100.00
72285;BME280;60220;53.552;10.092;2023-12-20T00:39:08;100712.38;;;6.71;100.00
72285;BME280;60220;53.552;10.092;2023-12-20T00:41:34;100708.88;;;6.57;100.00
72285;BME280;60220;53.552;10.092;2023-12-20T00:44:01;100709.81;;;6.77;100.00
72285;BME280;60220;53.552;10.092;2023-12-20T00:46:28;100711.47;;;6.52;100.00
72285;BME280;60220;53.552;10.092;2023-12-20T00:48:54;100702.75;;;6.42;100.00
72285;BME280;60220;53.552;10.092;2023-12-20T00:51:21;100703.53;;;6.17;100.00
72285;BME280;60220;53.552;10.092;2023-12-20T00:53:50;100699.94;;;5.91;100.00
72285;BME280;60220;53.552;10.092;2023-12-20T00:56:20;100690.50;;;6.17;100.00
72285;BME280;60220;53.552;10.092;2023-12-20T00:58:46;100699.22;;;6.25;100.00
72285;BME280;60220;53.552;10.092;2023-12-20T01:01:13;100690.63;;;6.61;100.00
72285;BME280;60220;53.552;10.092;2023-12-20T01:03:40;100688.03;;;6.64;100.00
72285;BME280;60220;53.552;10.092;2023-12-20T01:06:07;100681.09;;;6.80;100.00
72285;BME280;60220;53.552;10.092;2023-12-20T01:08:33;100680.13;;;6.35;100.00
72285;BME280;60220;53.552;10.092;2023-12-20T01:11:03;100679.19;;;6.11;100.00
72285;BME280;60220;53.552;10.092;2023-12-20T01:13:33;100683.59;;;6.31;100.00
72285;BME280;60220;53.552;10.092;2023-12-20T01:15:59;100682.78;;;6.49;100.00
72285;BME280;60220;53.552;10.092;2023-12-20T01:18:26;100684.53;;;6.64;100.00
72285;BME280;60220;53.552;10.092;2023-12-20T01:20:54;100681.78;;;6.14;100.00
72285;BME280;60220;53.552;10.092;2023-12-20T01:23:21;100684.31;;;5.98;100.00
72285;BME280;60220;53.552;10.092;2023-12-20T01:25:48;100677.50;;;6.22;100.00
72285;BME280;60220;53.552;10.092;2023-12-20T01:28:16;100673.72;;;5.67;100.00
72285;BME280;60220;53.552;10.092;2023-12-20T01:30:43;100671.38;;;6.15;100.00
72285;BME280;60220;53.552;10.092;2023-12-20T01:33:10;100668.78;;;6.20;100.00
72285;BME280;60220;53.552;10.092;2023-12-20T01:35:36;100673.97;;;6.14;100.00
72285;BME280;60220;53.552;10.092;2023-12-20T01:38:03;100681.78;;;6.18;100.00
72285;BME280;60220;53.552;10.092;2023-12-20T01:40:30;100674.88;;;6.23;100.00
72285;BME280;60220;53.552;10.092;2023-12-20T01:42:59;100671.34;;;6.06;100.00
72285;BME280;60220;53.552;10.092;2023-12-20T01:45:27;100667.00;;;6.07;100.00
72285;BME280;60220;53.552;10.092;2023-12-20T01:47:55;100676.63;;;6.29;100.00
72285;BME280;60220;53.552;10.092;2023-12-20T01:50:22;100664.41;;;6.14;100.00
72285;BME280;60220;53.552;10.092;2023-12-20T01:52:50;100655.78;;;6.27;100.00
72285;BME280;60220;53.552;10.092;2023-12-20T01:55:18;100659.19;;;6.02;100.00
72285;BME280;60220;53.552;10.092;2023-12-20T01:57:45;100652.13;;;5.86;100.00
72285;BME280;60220;53.552;10.092;2023-12-20T02:00:13;100655.50;;;5.70;100.00
72285;BME280;60220;53.552;10.092;2023-12-20T02:02:43;100665.31;;;6.16;100.00
72285;BME280;60220;53.552;10.092;2023-12-20T02:05:12;100660.81;;;5.88;100.00
72285;BME280;60220;53.552;10.092;2023-12-20T02:07:39;100652.13;;;5.83;100.00
72285;BME280;60220;53.552;10.092;2023-12-20T02:10:06;100646.25;;;6.38;100.00
72285;BME280;60220;53.552;10.092;2023-12-20T02:12:33;100639.25;;;6.19;100.00
72285;BME280;60220;53.552;10.092;2023-12-20T02:15:03;100638.28;;;5.87;100.00
72285;BME280;60220;53.552;10.092;2023-12-20T02:17:31;100634.94;;;6.30;100.00
72285;BME280;60220;53.552;10.092;2023-12-20T02:19:59;100632.28;;;6.18;100.00
72285;BME280;60220;53.552;10.092;2023-12-20T02:22:27;100631.44;;;6.25;100.00
72285;BME280;60220;53.552;10.092;2023-12-20T02:24:54;100631.38;;;6.04;100.00
72285;BME280;60220;53.552;10.092;2023-12-20T02:27:23;100621.72;;;5.82;100.00
72285;BME280;60220;53.552;10.092;2023-12-20T02:29:52;100621.88;;;6.17;100.00
72285;BME280;60220;53.552;10.092;2023-12-20T02:32:19;100619.72;;;5.38;100.00
72285;BME280;60220;53.552;10.092;2023-12-20T02:34:47;100627.00;;;6.03;100.00
72285;BME280;60220;53.552;10.092;2023-12-20T02:37:15;100615.72;;;5.95;100.00
72285;BME280;60220;53.552;10.092;2023-12-20T02:39:43;100612.22;;;5.93;100.00
72285;BME280;60220;53.552;10.092;2023-12-20T02:42:09;100617.53;;;6.29;100.00
72285;BME280;60220;53.552;10.092;2023-12-20T02:44:38;100615.81;;;6.31;100.00
72285;BME280;60220;53.552;10.092;2023-12-20T02:47:05;100613.00;;;5.78;100.00
72285;BME280;60220;53.552;10.092;2023-12-20T02:49:31;100605.38;;;6.28;100.00
72285;BME280;60220;53.552;10.092;2023-12-20T02:51:58;100607.88;;;5.87;100.00
72285;BME280;60220;53.552;10.092;2023-12-20T02:54:25;100599.22;;;5.91;100.00
72285;BME280;60220;53.552;10.092;2023-12-20T02:56:53;100598.16;;;5.57;100.00
72285;BME280;60220;53.552;10.092;2023-12-20T02:59:19;100594.06;;;6.20;100.00
72285;BME280;60220;53.552;10.092;2023-12-20T03:01:46;100588.00;;;6.12;100.00
72285;BME280;60220;53.552;10.092;2023-12-20T03:04:13;100601.03;;;6.12;100.00
72285;BME280;60220;53.552;10.092;2023-12-20T03:06:42;100592.31;;;6.10;100.00
72285;BME280;60220;53.552;10.092;2023-12-20T03:09:08;100588.84;;;6.11;100.00
72285;BME280;60220;53.552;10.092;2023-12-20T03:11:35;100588.03;;;6.47;100.00
72285;BME280;60220;53.552;10.092;2023-12-20T03:14:03;100591.28;;;5.70;100.00
72285;BME280;60220;53.552;10.092;2023-12-20T03:16:29;100588.84;;;6.07;100.00
72285;BME280;60220;53.552;10.092;2023-12-20T03:18:58;100587.13;;;6.28;100.00
72285;BME280;60220;53.552;10.092;2023-12-20T03:21:27;100580.13;;;5.95;100.00
72285;BME280;60220;53.552;10.092;2023-12-20T03:23:53;100576.66;;;6.09;100.00
72285;BME280;60220;53.552;10.092;2023-12-20T03:26:23;100568.00;;;6.28;100.00
72285;BME280;60220;53.552;10.092;2023-12-20T03:28:51;100564.38;;;5.71;100.00
72285;BME280;60220;53.552;10.092;2023-12-20T03:31:19;100560.16;;;6.08;100.00
72285;BME280;60220;53.552;10.092;2023-12-20T03:33:47;100568.03;;;6.17;100.00
72285;BME280;60220;53.552;10.092;2023-12-20T03:36:14;100574.00;;;5.89;100.00
72285;BME280;60220;53.552;10.092;2023-12-20T03:38:40;100560.94;;;5.83;100.00
72285;BME280;60220;53.552;10.092;2023-12-20T03:41:07;100556.53;;;5.67;100.00
72285;BME280;60220;53.552;10.092;2023-12-20T03:43:33;100567.16;;;6.21;100.00
72285;BME280;60220;53.552;10.092;2023-12-20T03:46:03;100555.88;;;6.46;100.00
72285;BME280;60220;53.552;10.092;2023-12-20T03:48:33;100558.44;;;6.15;100.00
72285;BME280;60220;53.552;10.092;2023-12-20T03:51:00;100555.84;;;6.24;100.00
72285;BME280;60220;53.552;10.092;2023-12-20T03:53:26;100554.00;;;5.85;100.00
72285;BME280;60220;53.552;10.092;2023-12-20T03:55:55;100539.34;;;6.17;100.00
72285;BME280;60220;53.552;10.092;2023-12-20T03:58:24;100529.78;;;6.12;100.00
72285;BME280;60220;53.552;10.092;2023-12-20T04:00:53;100536.72;;;6.19;100.00
72285;BME280;60220;53.552;10.092;2023-12-20T04:03:20;100523.69;;;6.02;100.00
72285;BME280;60220;53.552;10.092;2023-12-20T04:05:48;100521.06;;;6.08;100.00
72285;BME280;60220;53.552;10.092;2023-12-20T04:08:14;100517.59;;;5.97;100.00
72285;BME280;60220;53.552;10.092;2023-12-20T04:10:41;100519.28;;;5.83;100.00
72285;BME280;60220;53.552;10.092;2023-12-20T04:13:07;100525.34;;;5.82;100.00
72285;BME280;60220;53.552;10.092;2023-12-20T04:15:37;100521.84;;;5.71;100.00
72285;BME280;60220;53.552;10.092;2023-12-20T04:18:04;100518.41;;;5.82;100.00
72285;BME280;60220;53.552;10.092;2023-12-20T04:20:30;100521.03;;;5.93;100.00
72285;BME280;60220;53.552;10.092;2023-12-20T04:22:58;100514.97;;;5.94;100.00
72285;BME280;60220;53.552;10.092;2023-12-20T04:25:28;100508.91;;;5.99;100.00
72285;BME280;60220;53.552;10.092;2023-12-20T04:27:54;100501.09;;;5.92;100.00
72285;BME280;60220;53.552;10.092;2023-12-20T04:30:23;100500.22;;;5.87;100.00
72285;BME280;60220;53.552;10.092;2023-12-20T04:32:50;100492.41;;;6.05;100.00
72285;BME280;60220;53.552;10.092;2023-12-20T04:35:19;100490.69;;;6.10;100.00
72285;BME280;60220;53.552;10.092;2023-12-20T04:37:46;100484.63;;;6.02;100.00
72285;BME280;60220;53.552;10.092;2023-12-20T04:40:18;100488.88;;;5.85;100.00
72285;BME280;60220;53.552;10.092;2023-12-20T04:42:45;100478.50;;;6.00;100.00
72285;BME280;60220;53.552;10.092;2023-12-20T04:45:12;100469.69;;;5.46;100.00
72285;BME280;60220;53.552;10.092;2023-12-20T04:47:41;100468.97;;;6.02;100.00
72285;BME280;60220;53.552;10.092;2023-12-20T04:50:08;100464.53;;;5.74;100.00
72285;BME280;60220;53.552;10.092;2023-12-20T04:52:36;100462.91;;;6.15;100.00
72285;BME280;60220;53.552;10.092;2023-12-20T04:55:04;100461.16;;;6.11;100.00
72285;BME280;60220;53.552;10.092;2023-12-20T04:57:32;100466.28;;;5.84;100.00
72285;BME280;60220;53.552;10.092;2023-12-20T04:59:59;100461.13;;;5.93;100.00
72285;BME280;60220;53.552;10.092;2023-12-20T05:02:25;100461.16;;;6.14;100.00
72285;BME280;60220;53.552;10.092;2023-12-20T05:04:54;100455.94;;;6.08;100.00
72285;BME280;60220;53.552;10.092;2023-12-20T05:07:21;100465.47;;;6.67;100.00
72285;BME280;60220;53.552;10.092;2023-12-20T05:09:48;100454.19;;;6.13;100.00
72285;BME280;60220;53.552;10.092;2023-12-20T05:12:14;100457.69;;;6.15;100.00
72285;BME280;60220;53.552;10.092;2023-12-20T05:14:43;100461.16;;;6.41;100.00
72285;BME280;60220;53.552;10.092;2023-12-20T05:17:09;100461.16;;;6.10;100.00
72285;BME280;60220;53.552;10.092;2023-12-20T05:19:36;100459.41;;;6.01;100.00
72285;BME280;60220;53.552;10.092;2023-12-20T05:22:05;100454.22;;;6.10;100.00
72285;BME280;60220;53.552;10.092;2023-12-20T05:24:32;100455.97;;;6.26;100.00
72285;BME280;60220;53.552;10.092;2023-12-20T05:26:58;100459.44;;;6.07;100.00
72285;BME280;60220;53.552;10.092;2023-12-20T05:29:28;100448.97;;;5.98;100.00
72285;BME280;60220;53.552;10.092;2023-12-20T05:31:58;100453.34;;;6.05;100.00
72285;BME280;60220;53.552;10.092;2023-12-20T05:34:25;100460.25;;;6.61;100.00
72285;BME280;60220;53.552;10.092;2023-12-20T05:36:51;100447.25;;;6.20;100.00
72285;BME280;60220;53.552;10.092;2023-12-20T05:39:20;100446.38;;;5.93;100.00
72285;BME280;60220;53.552;10.092;2023-12-20T05:41:47;100446.38;;;6.33;100.00
72285;BME280;60220;53.552;10.092;2023-12-20T05:44:14;100443.78;;;6.34;100.00
72285;BME280;60220;53.552;10.092;2023-12-20T05:46:40;100445.53;;;6.17;100.00
72285;BME280;60220;53.552;10.092;2023-12-20T05:49:08;100445.53;;;6.47;100.00
72285;BME280;60220;53.552;10.092;2023-12-20T05:51:36;100446.41;;;6.21;100.00
72285;BME280;60220;53.552;10.092;2023-12-20T05:54:04;100446.41;;;6.22;100.00
72285;BME280;60220;53.552;10.092;2023-12-20T05:56:31;100445.53;;;6.20;100.00
72285;BME280;60220;53.552;10.092;2023-12-20T05:58:58;100442.03;;;6.36;100.00
72285;BME280;60220;53.552;10.092;2023-12-20T06:01:25;100425.56;;;6.16;100.00
72285;BME280;60220;53.552;10.092;2023-12-20T06:03:54;100427.28;;;5.90;100.00
72285;BME280;60220;53.552;10.092;2023-12-20T06:06:22;100418.59;;;6.14;100.00
72285;BME280;60220;53.552;10.092;2023-12-20T06:08:51;100424.69;;;6.02;100.00
72285;BME280;60220;53.552;10.092;2023-12-20T06:11:17;100430.75;;;6.40;100.00
72285;BME280;60220;53.552;10.092;2023-12-20T06:13:47;100422.06;;;6.31;100.00
72285;BME280;60220;53.552;10.092;2023-12-20T06:16:16;100417.75;;;6.07;100.00
72285;BME280;60220;53.552;10.092;2023-12-20T06:18:45;100412.53;;;6.07;100.00
72285;BME280;60220;53.552;10.092;2023-12-20T06:21:12;100402.97;;;6.12;100.00
72285;BME280;60220;53.552;10.092;2023-12-20T06:23:41;100402.97;;;6.26;100.00
72285;BME280;60220;53.552;10.092;2023-12-20T06:26:10;100403.84;;;5.96;100.00
72285;BME280;60220;53.552;10.092;2023-12-20T06:28:36;100402.09;;;6.10;100.00
72285;BME280;60220;53.552;10.092;2023-12-20T06:31:03;100409.03;;;6.08;100.00
72285;BME280;60220;53.552;10.092;2023-12-20T06:33:30;100394.25;;;6.18;100.00
72285;BME280;60220;53.552;10.092;2023-12-20T06:35:57;100402.97;;;6.17;100.00
72285;BME280;60220;53.552;10.092;2023-12-20T06:38:26;100392.53;;;6.04;100.00
72285;BME280;60220;53.552;10.092;2023-12-20T06:40:55;100388.19;;;6.32;100.00
72285;BME280;60220;53.552;10.092;2023-12-20T06:43:22;100396.00;;;6.23;100.00
72285;BME280;60220;53.552;10.092;2023-12-20T06:45:49;100400.34;;;6.15;100.00
72285;BME280;60220;53.552;10.092;2023-12-20T06:48:16;100389.91;;;6.18;100.00
72285;BME280;60220;53.552;10.092;2023-12-20T06:50:45;100386.38;;;6.56;100.00
72285;BME280;60220;53.552;10.092;2023-12-20T06:53:12;100385.56;;;6.34;100.00
72285;BME280;60220;53.552;10.092;2023-12-20T06:55:38;100379.50;;;6.30;100.00
72285;BME280;60220;53.552;10.092;2023-12-20T06:58:06;100382.97;;;6.37;100.00
72285;BME280;60220;53.552;10.092;2023-12-20T07:00:34;100377.69;;;6.60;100.00
72285;BME280;60220;53.552;10.092;2023-12-20T07:03:03;100376.00;;;6.34;100.00
72285;BME280;60220;53.552;10.092;2023-12-20T07:05:29;100370.81;;;6.31;100.00
72285;BME280;60220;53.552;10.092;2023-12-20T07:07:56;100362.97;;;6.34;100.00
72285;BME280;60220;53.552;10.092;2023-12-20T07:10:25;100358.66;;;6.09;100.00
72285;BME280;60220;53.552;10.092;2023-12-20T07:12:52;100349.97;;;6.19;100.00
72285;BME280;60220;53.552;10.092;2023-12-20T07:15:24;100349.88;;;6.53;100.00
72285;BME280;60220;53.552;10.092;2023-12-20T07:17:50;100357.78;;;6.19;100.00
72285;BME280;60220;53.552;10.092;2023-12-20T07:20:19;100369.09;;;6.08;100.00
72285;BME280;60220;53.552;10.092;2023-12-20T07:22:46;100358.59;;;6.45;100.00
72285;BME280;60220;53.552;10.092;2023-12-20T07:25:13;100372.53;;;6.29;100.00
72285;BME280;60220;53.552;10.092;2023-12-20T07:27:39;100372.44;;;6.72;100.00
72285;BME280;60220;53.552;10.092;2023-12-20T07:30:07;100360.25;;;6.74;100.00
72285;BME280;60220;53.552;10.092;2023-12-20T07:32:35;100370.69;;;6.74;100.00
72285;BME280;60220;53.552;10.092;2023-12-20T07:35:02;100361.13;;;6.74;100.00
72285;BME280;60220;53.552;10.092;2023-12-20T07:37:31;100357.72;;;6.51;100.00
72285;BME280;60220;53.552;10.092;2023-12-20T07:39:57;100359.44;;;6.54;100.00
72285;BME280;60220;53.552;10.092;2023-12-20T07:42:24;100355.94;;;6.59;100.00
72285;BME280;60220;53.552;10.092;2023-12-20T07:44:50;100362.03;;;6.60;100.00
72285;BME280;60220;53.552;10.092;2023-12-20T07:47:17;100355.97;;;6.50;100.00
72285;BME280;60220;53.552;10.092;2023-12-20T07:49:48;100349.81;;;6.74;100.00
72285;BME280;60220;53.552;10.092;2023-12-20T07:52:15;100343.78;;;6.60;100.00
72285;BME280;60220;53.552;10.092;2023-12-20T07:54:41;100343.75;;;6.69;100.00
72285;BME280;60220;53.552;10.092;2023-12-20T07:57:08;100344.72;;;6.40;100.00
72285;BME280;60220;53.552;10.092;2023-12-20T07:59:35;100332.56;;;6.42;100.00
72285;BME280;60220;53.552;10.092;2023-12-20T08:02:03;100342.03;;;6.59;100.00
72285;BME280;60220;53.552;10.092;2023-12-20T08:04:29;100333.41;;;6.40;100.00
72285;BME280;60220;53.552;10.092;2023-12-20T08:06:57;100336.84;;;6.56;100.00
72285;BME280;60220;53.552;10.092;2023-12-20T08:09:25;100340.34;;;6.48;100.00
72285;BME280;60220;53.552;10.092;2023-12-20T08:11:52;100328.19;;;6.41;100.00
72285;BME280;60220;53.552;10.092;2023-12-20T08:14:18;100345.41;;;6.85;100.00
72285;BME280;60220;53.552;10.092;2023-12-20T08:16:45;100328.19;;;6.40;100.00
72285;BME280;60220;53.552;10.092;2023-12-20T08:19:12;100321.16;;;6.65;100.00
72285;BME280;60220;53.552;10.092;2023-12-20T08:21:39;100310.72;;;6.69;100.00
72285;BME280;60220;53.552;10.092;2023-12-20T08:24:08;100305.44;;;6.81;100.00
72285;BME280;60220;53.552;10.092;2023-12-20T08:26:34;100301.97;;;6.81;100.00
72285;BME280;60220;53.552;10.092;2023-12-20T08:29:03;100296.81;;;6.63;100.00
72285;BME280;60220;53.552;10.092;2023-12-20T08:31:30;100292.31;;;6.97;100.00
72285;BME280;60220;53.552;10.092;2023-12-20T08:33:56;100299.47;;;6.57;100.00
72285;BME280;60220;53.552;10.092;2023-12-20T08:36:25;100299.41;;;6.72;100.00
72285;BME280;60220;53.552;10.092;2023-12-20T08:38:52;100287.09;;;6.95;100.00
72285;BME280;60220;53.552;10.092;2023-12-20T08:41:20;100292.41;;;6.80;100.00
72285;BME280;60220;53.552;10.092;2023-12-20T08:43:46;100278.28;;;7.13;100.00
72285;BME280;60220;53.552;10.092;2023-12-20T08:46:15;100290.53;;;7.06;100.00
72285;BME280;60220;53.552;10.092;2023-12-20T08:48:44;100287.97;;;6.96;100.00
72285;BME280;60220;53.552;10.092;2023-12-20T08:51:11;100272.47;;;6.71;100.00
72285;BME280;60220;53.552;10.092;2023-12-20T08:53:37;100284.56;;;6.84;100.00
72285;BME280;60220;53.552;10.092;2023-12-20T08:56:04;100274.97;;;6.88;100.00
72285;BME280;60220;53.552;10.092;2023-12-20T08:58:32;100273.31;;;6.69;100.00
72285;BME280;60220;53.552;10.092;2023-12-20T09:01:03;100284.44;;;7.03;100.00
72285;BME280;60220;53.552;10.092;2023-12-20T09:03:30;100269.81;;;6.73;100.00
72285;BME280;60220;53.552;10.092;2023-12-20T09:05:56;100285.53;;;6.59;100.00
72285;BME280;60220;53.552;10.092;2023-12-20T09:08:23;100291.69;;;6.47;100.00
72285;BME280;60220;53.552;10.092;2023-12-20T09:10:50;100264.66;;;6.64;100.00
72285;BME280;60220;53.552;10.092;2023-12-20T09:13:16;100236.97;;;6.38;100.00
72285;BME280;60220;53.552;10.092;2023-12-20T09:15:44;100245.59;;;6.49;100.00
72285;BME280;60220;53.552;10.092;2023-12-20T09:18:11;100271.72;;;6.34;100.00
72285;BME280;60220;53.552;10.092;2023-12-20T09:20:40;100263.81;;;6.60;100.00
72285;BME280;60220;53.552;10.092;2023-12-20T09:23:06;100275.25;;;6.27;100.00
72285;BME280;60220;53.552;10.092;2023-12-20T09:25:33;100274.44;;;5.99;100.00
72285;BME280;60220;53.552;10.092;2023-12-20T09:28:00;100288.34;;;5.97;100.00
72285;BME280;60220;53.552;10.092;2023-12-20T09:30:27;100284.84;;;5.99;100.00
72285;BME280;60220;53.552;10.092;2023-12-20T09:32:55;100291.81;;;5.79;100.00
72285;BME280;60220;53.552;10.092;2023-12-20T09:35:24;100290.06;;;5.54;100.00
72285;BME280;60220;53.552;10.092;2023-12-20T09:37:51;100274.47;;;5.71;100.00
72285;BME280;60220;53.552;10.092;2023-12-20T09:40:18;100269.25;;;5.92;100.00
72285;BME280;60220;53.552;10.092;2023-12-20T09:42:48;100270.13;;;5.67;100.00
72285;BME280;60220;53.552;10.092;2023-12-20T09:45:20;100280.53;;;5.88;100.00
72285;BME280;60220;53.552;10.092;2023-12-20T09:47:47;100283.97;;;6.05;100.00
72285;BME280;60220;53.552;10.092;2023-12-20T09:50:17;100294.44;;;5.90;100.00
72285;BME280;60220;53.552;10.092;2023-12-20T09:52:46;100301.34;;;6.03;100.00
72285;BME280;60220;53.552;10.092;2023-12-20T09:55:13;100289.19;;;6.11;100.00
72285;BME280;60220;53.552;10.092;2023-12-20T09:57:40;100297.00;;;6.05;100.00
72285;BME280;60220;53.552;10.092;2023-12-20T10:00:08;100305.63;;;6.42;100.00
72285;BME280;60220;53.552;10.092;2023-12-20T10:02:38;100294.38;;;6.26;100.00
72285;BME280;60220;53.552;10.092;2023-12-20T10:05:08;100304.84;;;5.96;100.00
72285;BME280;60220;53.552;10.092;2023-12-20T10:07:40;100304.81;;;5.81;100.00
72285;BME280;60220;53.552;10.092;2023-12-20T10:10:07;100285.72;;;5.85;100.00
72285;BME280;60220;53.552;10.092;2023-12-20T10:12:34;100285.63;;;6.33;100.00
72285;BME280;60220;53.552;10.092;2023-12-20T10:15:01;100286.56;;;6.08;100.00
72285;BME280;60220;53.552;10.092;2023-12-20T10:17:30;100273.59;;;5.72;100.00
72285;BME280;60220;53.552;10.092;2023-12-20T10:20:01;100303.97;;;5.73;100.00
72285;BME280;60220;53.552;10.092;2023-12-20T10:22:28;100327.41;;;5.57;100.00
72285;BME280;60220;53.552;10.092;2023-12-20T10:24:57;100339.53;;;5.58;100.00
72285;BME280;60220;53.552;10.092;2023-12-20T10:27:24;100323.03;;;5.69;100.00
72285;BME280;60220;53.552;10.092;2023-12-20T10:29:51;100317.88;;;5.88;100.00
72285;BME280;60220;53.552;10.092;2023-12-20T10:32:23;100300.50;;;6.05;100.00
72285;BME280;60220;53.552;10.092;2023-12-20T10:34:50;100314.38;;;5.68;100.00
72285;BME280;60220;53.552;10.092;2023-12-20T10:37:19;100304.84;;;5.78;100.00
72285;BME280;60220;53.552;10.092;2023-12-20T10:39:49;100284.88;;;5.96;100.00
72285;BME280;60220;53.552;10.092;2023-12-20T10:42:20;100271.84;;;5.43;100.00
72285;BME280;60220;53.552;10.092;2023-12-20T10:44:48;100285.72;;;5.85;100.00
72285;BME280;60220;53.552;10.092;2023-12-20T10:47:16;100284.03;;;5.87;100.00
72285;BME280;60220;53.552;10.092;2023-12-20T10:49:43;100283.91;;;6.31;100.00
72285;BME280;60220;53.552;10.092;2023-12-20T10:52:11;100287.47;;;5.89;100.00
72285;BME280;60220;53.552;10.092;2023-12-20T10:54:39;100275.25;;;6.27;100.00
72285;BME280;60220;53.552;10.092;2023-12-20T10:57:06;100273.53;;;6.14;100.00
72285;BME280;60220;53.552;10.092;2023-12-20T10:59:37;100267.44;;;6.14;100.00
72285;BME280;60220;53.552;10.092;2023-12-20T11:02:04;100282.25;;;6.07;100.00
72285;BME280;60220;53.552;10.092;2023-12-20T11:04:40;100264.00;;;5.99;100.00
72285;BME280;60220;53.552;10.092;2023-12-20T11:07:19;100278.75;;;6.17;100.00
72285;BME280;60220;53.552;10.092;2023-12-20T11:09:56;100284.00;;;5.96;100.00
72285;BME280;60220;53.552;10.092;2023-12-20T11:12:32;100264.91;;;5.97;100.00
72285;BME280;60220;53.552;10.092;2023-12-20T11:15:06;100277.91;;;6.08;100.00
72285;BME280;60220;53.552;10.092;2023-12-20T11:17:39;100277.06;;;5.71;100.00
72285;BME280;60220;53.552;10.092;2023-12-20T11:20:09;100275.31;;;5.70;100.00
72285;BME280;60220;53.552;10.092;2023-12-20T11:22:40;100295.22;;;6.25;100.00
72285;BME280;60220;53.552;10.092;2023-12-20T11:25:18;100302.16;;;6.23;100.00
72285;BME280;60220;53.552;10.092;2023-12-20T11:28:08;100284.69;;;6.53;100.00
72285;BME280;60220;53.552;10.092;2023-12-20T11:30:45;100282.06;;;6.59;100.00
72285;BME280;60220;53.552;10.092;2023-12-20T11:33:13;100278.50;;;6.81;100.00
72285;BME280;60220;53.552;10.092;2023-12-20T11:35:43;100283.53;;;7.11;100.00
72285;BME280;60220;53.552;10.092;2023-12-20T11:38:14;100310.72;;;6.65;100.00
72285;BME280;60220;53.552;10.092;2023-12-20T11:40:41;100316.81;;;6.67;100.00
72285;BME280;60220;53.552;10.092;2023-12-20T11:43:08;100296.91;;;6.40;100.00
72285;BME280;60220;53.552;10.092;2023-12-20T11:45:37;100305.69;;;5.64;100.00
72285;BME280;60220;53.552;10.092;2023-12-20T11:48:06;100297.88;;;5.80;100.00
72285;BME280;60220;53.552;10.092;2023-12-20T11:50:35;100294.41;;;5.81;100.00
72285;BME280;60220;53.552;10.092;2023-12-20T11:53:02;100287.47;;;5.83;100.00
72285;BME280;60220;53.552;10.092;2023-12-20T11:55:28;100275.31;;;5.82;100.00
72285;BME280;60220;53.552;10.092;2023-12-20T11:57:56;100268.38;;;5.56;100.00
72285;BME280;60220;53.552;10.092;2023-12-20T12:00:25;100281.41;;;5.87;100.00
72285;BME280;60220;53.552;10.092;2023-12-20T12:02:55;100284.00;;;5.72;100.00
72285;BME280;60220;53.552;10.092;2023-12-20T12:05:24;100277.91;;;5.86;100.00
72285;BME280;60220;53.552;10.092;2023-12-20T12:07:53;100278.75;;;6.08;100.00
72285;BME280;60220;53.552;10.092;2023-12-20T12:10:22;100310.00;;;6.08;100.00
72285;BME280;60220;53.552;10.092;2023-12-20T12:12:51;100286.59;;;5.79;100.00
72285;BME280;60220;53.552;10.092;2023-12-20T12:15:20;100281.38;;;5.81;100.00
72285;BME280;60220;53.552;10.092;2023-12-20T12:17:52;100274.47;;;5.66;100.00
72285;BME280;60220;53.552;10.092;2023-12-20T12:20:19;100271.84;;;5.89;100.00
72285;BME280;60220;53.552;10.092;2023-12-20T12:22:57;100257.94;;;5.99;100.00
72285;BME280;60220;53.552;10.092;2023-12-20T12:25:24;100256.16;;;6.13;100.00
72285;BME280;60220;53.552;10.092;2023-12-20T12:27:53;100249.03;;;6.61;100.00
72285;BME280;60220;53.552;10.092;2023-12-20T12:30:19;100252.38;;;6.87;100.00
72285;BME280;60220;53.552;10.092;2023-12-20T12:32:48;100257.75;;;6.57;100.00
72285;BME280;60220;53.552;10.092;2023-12-20T12:35:17;100250.78;;;6.62;100.00
72285;BME280;60220;53.552;10.092;2023-12-20T12:37:44;100257.63;;;6.81;100.00
72285;BME280;60220;53.552;10.092;2023-12-20T12:40:14;100253.41;;;6.56;100.00
72285;BME280;60220;53.552;10.092;2023-12-20T12:42:41;100250.63;;;6.86;100.00
72285;BME280;60220;53.552;10.092;2023-12-20T12:45:11;100254.16;;;6.74;100.00